Parksville, New York
Current Conditions -  °F | °C
As of 5:15 PM on Wednesday 28 Jan 2015 (Local Time) from KMSV Reporting Station
Clear Clear  
Wind Chill:   Ceiling: Unl
Heat Index: 21°   Visibility: 10mi
Dew Point: -2°   Wind: 14mph
Humidity: 36%   Direction: 340°NNW
Pressure: 30.12"   Gusts: 20mph
Location:  41.86°N, 74.76°W
Report Text: KMSV 282215Z AUTO 34012G17KT 10SM CLR M06/M19 A3012 RMK AO1
Loading
Personal Weather Stations






























Interactive Weather Map New forecast layout! Learn more

10-Day Weather Forecast

Advertisements
Track Severe Weather on mobile